Time;durP1;ratioP1;P1;durP2;ratioP2;P2;SDS_P1;SDS_P2;PMS_P1;PMS_P2;Temp;Humidity;BMP_temperature;BMP_pressure;BME280_temperature;BME280_humidity;BME280_pressure;Samples;Min_cycle;Max_cycle;Signal;HPM_P1;HPM_P2
2023/03/20 00:02:37;;;;;;;;;19.00;15.75;;;;;9.27;63.10;101572.09;146614;601;45020;-72
2023/03/20 00:05:39;;;;;;;;;11.75;11.25;;;;;9.31;62.90;101568.91;146607;608;47912;-72
2023/03/20 00:08:31;;;;;;;;;11.75;11.00;;;;;8.30;62.74;101386.84;146616;605;45020;-71
2023/03/20 00:11:50;;;;;;;;;8.75;7.50;;;;;9.28;62.39;101564.44;146613;623;45917;-72
2023/03/20 00:14:55;;;;;;;;;8.25;7.25;;;;;9.24;62.26;101558.13;146625;593;45020;-72
2023/03/20 00:18:03;;;;;;;;;7.75;7.75;;;;;8.06;61.69;101342.97;146618;692;46012;-74
2023/03/20 00:21:25;;;;;;;;;6.75;6.50;;;;;7.27;61.42;101222.03;146625;630;45021;-72
2023/03/20 00:24:35;;;;;;;;;6.50;5.50;;;;;9.15;62.33;101557.50;146618;603;45914;-72
2023/03/20 00:27:45;;;;;;;;;11.50;8.50;;;;;9.12;62.92;101554.69;146622;569;45021;-71
2023/03/20 00:30:52;;;;;;;;;;;;;;;;;;;;;
2023/03/20 00:33:45;;;;;;;;;7.50;7.50;;;;;9.02;63.34;101552.25;146625;586;45022;-71
2023/03/20 00:36:59;;;;;;;;;;;;;;;;;;;;;
2023/03/20 00:40:12;;;;;;;;;11.50;10.00;;;;;6.94;64.22;101211.03;146622;603;45022;-71
2023/03/20 00:43:15;;;;;;;;;12.25;12.00;;;;;8.77;65.77;101542.75;146609;608;46012;-73
2023/03/20 00:46:33;;;;;;;;;12.50;12.50;;;;;8.77;65.21;101550.50;146615;578;46010;-71
2023/03/20 00:49:40;;;;;;;;;16.50;13.00;;;;;8.81;65.68;101530.94;146610;604;45913;-73
2023/03/20 00:52:35;;;;;;;;;11.50;10.75;;;;;8.85;65.97;101532.97;146613;569;46010;-74
2023/03/20 00:55:46;;;;;;;;;38.50;34.00;;;;;8.91;66.26;101522.13;146613;646;45911;-74
2023/03/20 00:58:51;;;;;;;;;36.00;27.50;;;;;8.98;65.89;101517.53;146617;590;45020;-72
2023/03/20 01:02:11;;;;;;;;;15.75;14.00;;;;;9.06;65.11;101519.75;146610;569;45912;-71
2023/03/20 01:05:12;;;;;;;;;14.50;10.50;;;;;9.05;64.80;101508.50;146617;642;45021;-72
2023/03/20 01:08:34;;;;;;;;;10.75;9.50;;;;;8.99;63.95;101503.78;146611;583;45913;-71
2023/03/20 01:11:40;;;;;;;;;8.75;7.75;;;;;9.02;64.60;101506.59;146623;587;46011;-70
2023/03/20 01:14:38;;;;;;;;;11.75;9.75;;;;;9.00;64.16;101507.25;146619;582;46016;-71
2023/03/20 01:17:49;;;;;;;;;10.25;10.25;;;;;8.90;64.35;101505.72;146619;577;47011;-71
2023/03/20 01:20:59;;;;;;;;;7.25;5.75;;;;;8.82;63.91;101508.59;146612;573;46012;-71
2023/03/20 01:24:05;;;;;;;;;8.25;8.25;;;;;8.72;64.48;101513.09;146626;636;46010;-71
2023/03/20 01:27:00;;;;;;;;;11.75;9.00;;;;;7.69;64.69;101346.28;146616;579;46012;-71
2023/03/20 01:30:12;;;;;;;;;12.25;10.25;;;;;8.63;64.68;101516.69;146622;599;45020;-72
2023/03/20 01:33:25;;;;;;;;;5.00;4.50;;;;;8.59;64.27;101512.09;146612;668;46012;-72
2023/03/20 01:36:23;;;;;;;;;11.75;9.50;;;;;8.52;64.93;101513.34;146622;680;45020;-72
2023/03/20 01:39:46;;;;;;;;;14.75;13.75;;;;;6.77;64.56;101231.22;146619;725;46012;-75
2023/03/20 01:43:03;;;;;;;;;12.50;11.00;;;;;8.30;64.57;101519.53;146616;583;46010;-72
2023/03/20 01:46:28;;;;;;;;;9.50;9.25;;;;;7.07;64.37;101310.84;146612;569;45915;-73
2023/03/20 01:50:15;;;;;;;;;12.75;10.75;;;;;7.08;64.76;101322.94;146621;614;46012;-73
2023/03/20 01:53:40;;;;;;;;;12.50;10.00;;;;;6.01;64.83;101124.22;146610;598;45917;-74
2023/03/20 01:56:58;;;;;;;;;10.25;10.25;;;;;8.29;65.65;101522.91;146618;573;45021;-72
2023/03/20 02:00:09;;;;;;;;;12.75;10.00;;;;;8.22;66.65;101520.63;146603;606;48913;-72
2023/03/20 02:03:24;;;;;;;;;10.25;8.50;;;;;8.08;66.50;101516.16;146618;574;45021;-72
2023/03/20 02:06:50;;;;;;;;;;;;;;;;;;;;;
2023/03/20 02:09:52;;;;;;;;;14.00;8.75;;;;;7.74;67.42;101512.75;146617;673;45021;-71
2023/03/20 02:13:02;;;;;;;;;12.50;10.50;;;;;7.65;67.23;101512.94;146617;572;46912;-71
2023/03/20 02:16:20;;;;;;;;;10.50;8.75;;;;;7.59;67.55;101515.06;146619;581;45020;-71
2023/03/20 02:19:47;;;;;;;;;14.75;14.25;;;;;7.51;68.29;101517.09;146621;634;45017;-71
2023/03/20 02:23:25;;;;;;;;;8.75;8.75;;;;;6.41;68.57;101339.31;146618;583;45020;-70
2023/03/20 02:26:57;;;;;;;;;9.00;9.00;;;;;7.39;68.85;101516.16;146616;601;46014;-72
2023/03/20 02:30:32;;;;;;;;;12.50;11.50;;;;;7.37;68.15;101497.94;146623;580;46010;-71
2023/03/20 02:34:18;;;;;;;;;10.00;9.50;;;;;6.06;67.90;101276.47;146616;628;45017;-71
2023/03/20 02:38:12;;;;;;;;;10.75;10.50;;;;;7.42;69.10;101505.16;146624;599;45022;-71
2023/03/20 02:41:50;;;;;;;;;7.50;7.50;;;;;5.29;68.45;101116.97;146613;574;46012;-71
2023/03/20 02:45:27;;;;;;;;;9.75;8.25;;;;;6.31;67.83;101274.13;146625;582;46010;-70
2023/03/20 02:49:10;;;;;;;;;9.75;7.75;;;;;6.52;67.63;101296.38;146617;590;45920;-70
2023/03/20 02:53:13;;;;;;;;;6.25;6.25;;;;;6.60;66.65;101294.34;146621;577;46010;-69
2023/03/20 02:56:36;;;;;;;;;11.00;9.25;;;;;7.80;66.38;101497.72;146619;566;46014;-72
2023/03/20 03:00:27;;;;;;;;;8.75;7.25;;;;;7.91;65.71;101498.50;146623;622;46010;-71
2023/03/20 03:03:43;;;;;;;;;9.75;8.00;;;;;7.97;65.73;101488.63;146619;590;46014;-72
2023/03/20 03:06:53;;;;;;;;;9.50;7.00;;;;;7.96;65.72;101494.59;146623;570;45020;-72
2023/03/20 03:10:44;;;;;;;;;10.25;10.25;;;;;7.92;64.79;101497.75;146619;575;45915;-72
2023/03/20 03:13:56;;;;;;;;;11.00;10.00;;;;;7.91;65.08;101501.97;146640;607;45010;-70
2023/03/20 03:17:03;;;;;;;;;18.75;15.00;;;;;7.92;65.58;101497.75;146635;603;45915;-69
2023/03/20 03:20:08;;;;;;;;;14.75;13.75;;;;;7.99;65.41;101500.88;146638;582;44020;-69
2023/03/20 03:23:23;;;;;;;;;22.25;18.50;;;;;7.94;65.76;101503.91;146634;587;45914;-79
2023/03/20 03:26:38;;;;;;;;;21.75;18.50;;;;;7.90;65.53;101501.87;146638;581;44021;-75
2023/03/20 03:30:03;;;;;;;;;;;;;;;;;;;;;
2023/03/20 03:33:43;;;;;;;;;23.00;16.00;;;;;5.70;65.40;101142.47;146640;592;44021;-76
2023/03/20 03:37:16;;;;;;;;;12.50;12.25;;;;;6.22;65.34;101235.66;146637;571;45012;-74
2023/03/20 03:41:03;;;;;;;;;8.75;7.75;;;;;5.87;65.68;101179.75;146640;604;44021;-75
2023/03/20 03:44:28;;;;;;;;;8.50;8.00;;;;;7.55;66.48;101501.03;146643;661;44915;-73
2023/03/20 03:47:29;;;;;;;;;10.50;9.00;;;;;7.43;67.49;101494.06;146646;575;44023;-72
2023/03/20 03:51:02;;;;;;;;;10.50;9.50;;;;;5.26;67.64;101123.53;146643;565;45917;-74
2023/03/20 03:54:29;;;;;;;;;11.50;10.00;;;;;7.32;67.52;101494.16;146647;575;45012;-76
2023/03/20 03:57:44;;;;;;;;;10.00;8.00;;;;;7.29;69.58;101492.97;146639;575;44016;-75
2023/03/20 04:00:58;;;;;;;;;12.25;10.00;;;;;7.22;69.88;101490.72;146648;571;44020;-75
2023/03/20 04:04:03;;;;;;;;;12.00;9.00;;;;;7.18;69.45;101484.44;146636;564;45912;-74
2023/03/20 04:06:55;;;;;;;;;10.00;6.25;;;;;7.13;69.56;101471.19;146647;581;44020;-74
2023/03/20 04:09:59;;;;;;;;;11.00;10.00;;;;;7.13;69.49;101476.38;146640;601;45913;-74
2023/03/20 04:13:03;;;;;;;;;9.25;9.25;;;;;7.12;69.40;101476.22;146623;589;45020;-75
2023/03/20 04:16:11;;;;;;;;;10.25;10.00;;;;;7.12;69.72;101482.28;146626;646;45913;-70
2023/03/20 04:19:35;;;;;;;;;9.00;7.50;;;;;6.70;69.25;101397.38;146625;563;45020;-68
2023/03/20 04:22:46;;;;;;;;;9.00;7.00;;;;;7.11;69.82;101471.88;146627;582;45911;-69
2023/03/20 04:25:51;;;;;;;;;7.00;6.75;;;;;7.08;69.63;101467.34;146631;609;46010;-69
2023/03/20 04:28:53;;;;;;;;;7.00;6.00;;;;;7.04;69.41;101467.00;146625;573;45913;-69
2023/03/20 04:31:50;;;;;;;;;8.00;6.50;;;;;7.04;68.99;101464.41;146631;746;45021;-71
2023/03/20 04:35:00;;;;;;;;;8.50;5.50;;;;;7.05;69.29;101472.28;146623;627;47012;-71
2023/03/20 04:38:11;;;;;;;;;;;;;;;;;;;;;
2023/03/20 04:41:21;;;;;;;;;9.75;7.75;;;;;7.16;68.88;101483.41;146622;595;46012;-72
2023/03/20 04:44:21;;;;;;;;;8.25;7.25;;;;;7.28;68.60;101493.78;146625;587;46010;-71
2023/03/20 04:47:26;;;;;;;;;9.00;8.00;;;;;7.32;68.19;101483.81;146619;570;45915;-70
2023/03/20 04:50:21;;;;;;;;;11.25;9.25;;;;;7.44;67.80;101503.56;146619;566;45020;-70
2023/03/20 04:53:34;;;;;;;;;14.75;12.00;;;;;7.40;67.44;101500.75;146618;619;46013;-70
2023/03/20 04:56:46;;;;;;;;;11.75;10.50;;;;;7.38;67.48;101502.34;146623;641;46010;-70
2023/03/20 04:59:49;;;;;;;;;13.50;13.50;;;;;7.37;67.75;101502.22;146615;669;46012;-71
2023/03/20 05:02:43;;;;;;;;;15.00;12.50;;;;;6.31;68.02;101321.37;146624;626;45021;-72
2023/03/20 05:05:43;;;;;;;;;15.50;12.25;;;;;7.44;68.50;101513.91;146620;654;45915;-69
2023/03/20 05:08:39;;;;;;;;;18.25;11.75;;;;;7.51;68.27;101516.19;146625;620;45021;-69
2023/03/20 05:11:40;;;;;;;;;12.50;9.75;;;;;7.86;69.17;101517.16;146619;611;45914;-75
2023/03/20 05:14:40;;;;;;;;;12.75;11.50;;;;;8.53;68.52;101526.38;146621;593;45020;-73
2023/03/20 05:17:43;;;;;;;;;14.50;12.75;;;;;9.29;65.59;101518.78;146610;575;46012;-74
2023/03/20 05:20:52;;;;;;;;;12.75;11.00;;;;;10.00;65.65;101525.31;146610;614;45020;-74
2023/03/20 05:23:55;;;;;;;;;10.25;10.00;;;;;10.80;65.43;101520.12;146610;670;45915;-74
2023/03/20 05:27:01;;;;;;;;;7.75;7.50;;;;;11.64;61.69;101524.38;146617;572;46010;-74
2023/03/20 05:29:56;;;;;;;;;8.25;7.75;;;;;12.40;60.18;101509.78;146612;617;46013;-75
2023/03/20 05:33:20;;;;;;;;;10.25;10.00;;;;;13.28;56.35;101511.16;146624;576;46010;-76
2023/03/20 05:36:18;;;;;;;;;7.75;7.75;;;;;13.18;54.80;101386.47;146608;630;46012;-71
2023/03/20 05:39:12;;;;;;;;;7.75;7.00;;;;;14.45;53.16;101509.19;146623;578;45021;-76
2023/03/20 05:42:14;;;;;;;;;11.25;10.75;;;;;14.74;51.39;101508.91;146614;604;45915;-76
2023/03/20 05:45:20;;;;;;;;;;;;;;;;;;;;;
2023/03/20 05:48:34;;;;;;;;;;;;;;;;;;;;;
2023/03/20 05:51:36;;;;;;;;;29.25;27.00;;;;;14.63;50.27;101514.44;146608;625;47020;-74
2023/03/20 05:54:36;;;;;;;;;29.50;25.75;;;;;14.35;50.91;101520.91;146610;624;46012;-75
2023/03/20 05:57:28;;;;;;;;;17.25;15.25;;;;;14.15;50.89;101524.25;146612;601;46010;-76
2023/03/20 06:00:23;;;;;;;;;22.50;20.00;;;;;13.93;51.82;101527.50;146608;565;46012;-76
2023/03/20 06:03:37;;;;;;;;;28.50;25.50;;;;;11.97;53.68;101217.13;146611;586;45020;-74
2023/03/20 06:06:41;;;;;;;;;31.75;29.25;;;;;11.79;54.17;101203.09;146612;641;45914;-76
2023/03/20 06:09:42;;;;;;;;;31.50;28.25;;;;;13.61;54.75;101516.31;146610;608;46010;-76
2023/03/20 06:12:48;;;;;;;;;29.00;24.50;;;;;13.73;55.02;101522.16;146608;614;45916;-76
2023/03/20 06:15:49;;;;;;;;;24.25;19.25;;;;;13.91;54.78;101514.38;146610;613;46010;-76
2023/03/20 06:18:49;;;;;;;;;31.25;25.75;;;;;14.07;53.92;101514.31;146605;582;46012;-76
2023/03/20 06:21:49;;;;;;;;;26.00;25.00;;;;;14.16;52.21;101520.81;146605;642;46010;-77
2023/03/20 06:24:42;;;;;;;;;35.75;32.50;;;;;14.20;52.29;101513.22;146608;573;45912;-75
2023/03/20 06:27:39;;;;;;;;;36.00;30.00;;;;;14.28;53.08;101509.28;146616;656;45020;-75
2023/03/20 06:30:32;;;;;;;;;28.25;25.50;;;;;14.38;52.51;101510.59;146608;629;45913;-76
2023/03/20 06:33:52;;;;;;;;;18.75;17.50;;;;;14.51;54.02;101515.63;146612;572;45020;-77
2023/03/20 06:36:57;;;;;;;;;21.75;18.50;;;;;14.73;53.53;101511.41;146609;611;45912;-77
2023/03/20 06:39:56;;;;;;;;;25.00;21.25;;;;;14.90;51.49;101504.37;146612;628;46020;-78
2023/03/20 06:42:59;;;;;;;;;21.25;21.00;;;;;15.05;51.10;101510.31;146605;610;46012;-75
2023/03/20 06:46:00;;;;;;;;;27.75;25.25;;;;;15.19;51.27;101506.59;146610;585;46010;-76
2023/03/20 06:48:52;;;;;;;;;21.75;20.75;;;;;15.40;50.47;101495.31;146607;593;46012;-82
2023/03/20 06:51:51;;;;;;;;;23.00;22.00;;;;;15.64;49.74;101503.34;146605;565;45916;-82
2023/03/20 06:54:55;;;;;;;;;;;;;;;;;;;;;
2023/03/20 06:57:51;;;;;;;;;21.00;18.00;;;;;16.00;49.13;101503.12;146613;567;46012;-83
2023/03/20 07:00:43;;;;;;;;;22.25;18.25;;;;;16.15;48.75;101503.75;146606;631;46012;-82
2023/03/20 07:03:50;;;;;;;;;27.75;21.75;;;;;16.26;48.45;101507.72;146616;579;45020;-81
2023/03/20 07:06:57;;;;;;;;;;;;;;;;;;;;;
2023/03/20 07:10:11;;;;;;;;;26.75;22.75;;;;;15.23;49.56;101278.63;146612;564;45020;-81
2023/03/20 07:13:16;;;;;;;;;23.50;21.00;;;;;16.62;48.75;101503.03;146635;619;45912;-82
2023/03/20 07:16:28;;;;;;;;;29.00;26.00;;;;;16.73;48.96;101489.44;146637;593;44021;-82
2023/03/20 07:19:24;;;;;;;;;27.25;23.50;;;;;16.75;47.67;101487.78;146636;620;45912;-83
2023/03/20 07:22:29;;;;;;;;;32.25;25.50;;;;;16.72;49.01;101493.81;146631;630;44021;-82
2023/03/20 07:25:32;;;;;;;;;26.50;25.50;;;;;16.71;48.91;101497.25;146630;565;47016;-82
2023/03/20 07:28:37;;;;;;;;;;;;;;;;;;;;;
2023/03/20 07:31:39;;;;;;;;;34.50;27.25;;;;;16.99;49.11;101499.25;146635;614;44912;-82
2023/03/20 07:34:46;;;;;;;;;32.75;29.50;;;;;17.11;47.92;101500.53;146638;598;44020;-82
2023/03/20 07:37:52;;;;;;;;;30.25;28.75;;;;;17.18;48.17;101502.53;146636;694;44017;-82
2023/03/20 07:41:08;;;;;;;;;25.75;22.75;;;;;17.22;47.82;101502.69;146639;649;44020;-83
2023/03/20 07:44:02;;;;;;;;;22.00;20.75;;;;;17.19;47.58;101501.69;146635;593;45914;-82
2023/03/20 07:47:10;;;;;;;;;20.25;19.50;;;;;17.13;47.89;101510.22;146639;610;44020;-83
2023/03/20 07:50:11;;;;;;;;;28.75;26.25;;;;;17.08;48.70;101504.81;146636;569;44017;-81
2023/03/20 07:53:10;;;;;;;;;24.75;24.25;;;;;17.11;49.82;101508.41;146631;581;45010;-82
2023/03/20 07:56:14;;;;;;;;;27.00;24.00;;;;;17.19;50.47;101506.94;146631;632;44016;-82
2023/03/20 07:59:15;;;;;;;;;29.50;27.25;;;;;17.25;50.86;101515.03;146640;649;44020;-81
2023/03/20 08:02:21;;;;;;;;;30.25;27.25;;;;;17.31;51.24;101516.13;146635;579;44914;-82
2023/03/20 08:05:22;;;;;;;;;32.75;28.75;;;;;17.39;50.80;101505.94;146638;624;44021;-83
2023/03/20 08:08:32;;;;;;;;;28.50;25.75;;;;;17.45;50.71;101500.94;146635;587;45913;-81
2023/03/20 08:11:51;;;;;;;;;;;;;;;;;;;;;
2023/03/20 08:14:51;;;;;;;;;31.00;26.50;;;;;17.75;49.69;101500.19;146605;584;46012;-81
2023/03/20 08:17:57;;;;;;;;;35.50;28.50;;;;;17.92;48.75;101501.72;146613;616;46010;-82
2023/03/20 08:21:10;;;;;;;;;27.00;25.00;;;;;18.02;49.29;101508.16;146606;581;46014;-81
2023/03/20 08:24:14;;;;;;;;;29.00;25.00;;;;;18.11;48.21;101504.94;146610;591;45020;-78
2023/03/20 08:27:13;;;;;;;;;26.00;23.75;;;;;18.15;49.16;101502.47;146609;656;45914;-82
2023/03/20 08:30:18;;;;;;;;;24.50;24.00;;;;;18.26;49.11;101500.19;146613;606;46010;-81
2023/03/20 08:33:20;;;;;;;;;26.25;22.50;;;;;18.42;49.71;101491.06;146605;590;47012;-79
2023/03/20 08:36:24;;;;;;;;;24.50;22.25;;;;;18.56;48.69;101481.88;146611;597;46010;-80
2023/03/20 08:39:26;;;;;;;;;28.00;24.75;;;;;18.59;48.46;101484.59;146604;620;46016;-81
2023/03/20 08:42:26;;;;;;;;;21.75;21.00;;;;;18.36;48.82;101443.63;146613;612;46013;-81
2023/03/20 08:45:20;;;;;;;;;20.75;20.00;;;;;18.49;48.67;101465.88;146606;589;46012;-81
2023/03/20 08:48:22;;;;;;;;;25.50;21.75;;;;;16.60;48.64;101152.97;146616;563;45020;-80
2023/03/20 08:51:15;;;;;;;;;21.00;19.00;;;;;18.30;47.40;101459.19;146604;606;46014;-79
2023/03/20 08:54:09;;;;;;;;;25.00;20.50;;;;;18.29;47.64;101460.91;146607;581;45020;-80
2023/03/20 08:57:02;;;;;;;;;18.00;15.00;;;;;18.36;46.69;101467.25;146605;614;46012;-80
2023/03/20 08:59:54;;;;;;;;;20.75;19.50;;;;;18.39;46.29;101467.34;146613;695;45021;-80
2023/03/20 09:02:47;;;;;;;;;22.50;18.75;;;;;18.45;47.59;101465.78;146607;610;45915;-80
2023/03/20 09:05:43;;;;;;;;;19.50;17.75;;;;;18.55;46.39;101473.97;146613;621;45021;-81
2023/03/20 09:08:38;;;;;;;;;18.75;16.25;;;;;18.63;47.25;101481.22;146609;717;45914;-81
2023/03/20 09:11:31;;;;;;;;;20.00;17.25;;;;;18.65;45.37;101462.88;146614;601;46010;-79
2023/03/20 09:14:26;;;;;;;;;21.00;18.50;;;;;18.68;45.96;101486.59;146606;688;45915;-81
2023/03/20 09:17:21;;;;;;;;;23.00;18.75;;;;;18.64;46.69;101480.38;146613;619;46010;-81
2023/03/20 09:20:14;;;;;;;;;19.25;18.00;;;;;18.74;45.80;101492.09;146609;634;45915;-81
2023/03/20 09:23:07;;;;;;;;;22.50;19.75;;;;;18.79;46.33;101477.37;146607;584;46010;-80
2023/03/20 09:26:00;;;;;;;;;17.25;16.00;;;;;19.00;45.29;101478.81;146606;586;46012;-81
2023/03/20 09:29:04;;;;;;;;;18.25;16.00;;;;;19.11;45.85;101473.03;146617;569;45021;-81
2023/03/20 09:32:01;;;;;;;;;19.25;17.00;;;;;19.30;44.60;101470.91;146608;565;45914;-80
2023/03/20 09:34:56;;;;;;;;;20.50;18.25;;;;;19.42;45.32;101460.72;146609;604;46010;-76
2023/03/20 09:37:56;;;;;;;;;24.25;21.00;;;;;19.55;45.06;101464.56;146607;715;46012;-80
2023/03/20 09:41:12;;;;;;;;;26.25;21.00;;;;;19.68;46.71;101450.91;146609;583;45020;-77
2023/03/20 09:44:33;;;;;;;;;24.75;22.00;;;;;19.87;47.19;101446.13;146608;579;45915;-75
2023/03/20 09:47:42;;;;;;;;;25.00;25.00;;;;;20.08;46.62;101439.63;146614;584;45020;-79
2023/03/20 09:50:50;;;;;;;;;19.75;19.50;;;;;20.29;46.37;101435.72;146606;606;46013;-78
2023/03/20 09:53:59;;;;;;;;;22.25;21.00;;;;;19.41;45.04;101248.56;146603;569;46010;-80
2023/03/20 09:57:05;;;;;;;;;21.00;19.25;;;;;20.60;43.31;101421.50;146603;618;47013;-79
2023/03/20 10:00:10;;;;;;;;;19.25;17.75;;;;;19.97;43.98;101282.28;146612;569;45021;-78
2023/03/20 10:03:08;;;;;;;;;17.00;17.00;;;;;20.79;42.58;101406.09;146608;659;45914;-79
2023/03/20 10:06:09;;;;;;;;;16.25;16.25;;;;;20.19;43.32;101281.91;146608;583;46010;-79
2023/03/20 10:09:03;;;;;;;;;21.50;19.75;;;;;21.04;41.30;101403.06;146608;605;45913;-80
2023/03/20 10:12:50;;;;;;;;;19.00;17.25;;;;;21.25;44.93;101410.50;146612;694;45021;-81
2023/03/20 10:16:07;;;;;;;;;20.75;18.75;;;;;21.43;44.53;101399.41;146607;612;46914;-79
2023/03/20 10:19:11;;;;;;;;;18.00;18.00;;;;;21.62;42.72;101403.25;146610;564;46010;-80
2023/03/20 10:22:19;;;;;;;;;12.00;11.25;;;;;21.65;41.80;101403.31;146607;738;46012;-78
2023/03/20 10:25:45;;;;;;;;;9.00;7.00;;;;;21.65;42.07;101408.56;146608;599;45020;-79
2023/03/20 10:29:01;;;;;;;;;10.50;9.25;;;;;21.67;42.50;101405.09;146612;635;46012;-80
2023/03/20 10:32:17;;;;;;;;;12.00;10.25;;;;;21.71;41.90;101400.75;146619;574;45020;-80
2023/03/20 10:35:52;;;;;;;;;10.67;10.67;;;;;21.52;38.96;101390.78;146608;578;45915;-83
2023/03/20 10:39:16;;;;;;;;;12.50;11.75;;;;;21.26;40.86;101385.00;146613;565;45020;-79
2023/03/20 10:42:18;;;;;;;;;17.75;16.25;;;;;20.88;39.45;101374.66;146608;635;45915;-77
2023/03/20 10:45:45;;;;;;;;;17.25;17.25;;;;;19.39;43.56;101224.84;146614;591;45020;-79
2023/03/20 10:49:07;;;;;;;;;20.00;19.50;;;;;18.46;43.44;101126.19;146609;635;46015;-82
2023/03/20 10:52:10;;;;;;;;;21.50;19.75;;;;;19.59;43.91;101353.31;146613;596;46012;-77
2023/03/20 10:55:35;;;;;;;;;27.25;23.25;;;;;19.38;44.30;101357.19;146609;604;45914;-80
2023/03/20 10:58:50;;;;;;;;;27.25;25.75;;;;;19.24;45.46;101360.31;146606;620;45021;-80
2023/03/20 11:01:52;;;;;;;;;28.00;25.00;;;;;19.25;46.16;101355.13;146608;573;45016;-78
2023/03/20 11:04:59;;;;;;;;;24.25;23.75;;;;;19.35;45.96;101349.22;146611;571;46011;-80
2023/03/20 11:08:34;;;;;;;;;24.75;21.50;;;;;17.17;46.72;100947.84;146608;595;45916;-79
2023/03/20 11:11:38;;;;;;;;;18.00;15.00;;;;;19.57;42.32;101332.25;146611;570;45021;-81
2023/03/20 11:14:57;;;;;;;;;18.00;16.75;;;;;19.52;44.08;101331.22;146609;569;47014;-78
2023/03/20 11:18:12;;;;;;;;;16.75;15.75;;;;;19.44;43.12;101332.81;146608;578;46010;-80
2023/03/20 11:21:31;;;;;;;;;13.00;13.00;;;;;19.43;44.07;101320.47;146609;603;45041;-80
2023/03/20 11:24:44;;;;;;;;;13.00;10.75;;;;;19.53;41.14;101309.34;146612;603;45020;-79
2023/03/20 11:27:48;;;;;;;;;11.67;10.00;;;;;19.63;39.22;101310.47;146608;583;45913;-78
2023/03/20 11:30:47;;;;;;;;;10.00;9.00;;;;;19.75;39.12;101302.88;146605;638;47010;-78
2023/03/20 11:34:12;;;;;;;;;10.75;9.25;;;;;17.83;36.39;100947.88;146615;686;45913;-85
2023/03/20 11:37:24;;;;;;;;;8.75;8.50;;;;;19.83;34.99;101282.88;146622;609;46010;-81
2023/03/20 11:40:52;;;;;;;;;;;;;;;;;;;;;
2023/03/20 11:43:57;;;;;;;;;12.00;11.25;;;;;19.72;39.13;101268.59;146618;653;45021;-79
2023/03/20 11:47:22;;;;;;;;;12.00;10.00;;;;;18.82;37.64;101103.47;146606;717;46012;-83
2023/03/20 11:50:50;;;;;;;;;16.75;12.50;;;;;19.77;41.24;101274.84;146612;610;45021;-77
2023/03/20 11:54:03;;;;;;;;;13.00;12.00;;;;;19.82;40.58;101267.94;146610;579;45016;-78
2023/03/20 11:57:39;;;;;;;;;6.50;6.25;;;;;18.60;37.09;100997.00;146611;569;46010;-78
2023/03/20 12:01:06;;;;;;;;;7.67;6.00;;;;;18.69;37.03;100966.56;146615;569;46012;-81
2023/03/20 12:04:47;;;;;;;;;5.00;5.00;;;;;19.60;34.45;101086.78;146612;569;46010;-78
2023/03/20 12:08:06;;;;;;;;;6.33;5.00;;;;;20.65;35.50;101239.78;146614;563;46014;-80
2023/03/20 12:11:18;;;;;;;;;6.75;6.75;;;;;20.68;36.28;101240.72;146619;570;46021;-77
2023/03/20 12:14:32;;;;;;;;;5.33;4.00;;;;;20.69;36.71;101234.63;146620;569;45917;-80
2023/03/20 12:18:16;;;;;;;;;4.33;4.33;;;;;19.77;35.42;101040.66;146626;585;45021;-81
2023/03/20 12:21:40;;;;;;;;;3.00;3.00;;;;;20.44;37.23;101133.16;146617;688;46016;-79
2023/03/20 12:25:24;;;;;;;;;3.67;3.67;;;;;19.43;37.41;100943.53;146626;664;46010;-80
2023/03/20 12:29:03;;;;;;;;;5.00;4.00;;;;;21.06;37.57;101215.88;146614;613;46012;-80
2023/03/20 12:32:51;;;;;;;;;3.00;3.00;;;;;20.80;37.62;101173.28;146625;599;45022;-80
2023/03/20 12:36:05;;;;;;;;;4.67;4.00;;;;;21.00;34.53;101214.06;146615;577;46012;-80
2023/03/20 12:40:03;;;;;;;;;5.50;3.75;;;;;20.85;32.86;101204.13;146618;577;45021;-77
2023/03/20 12:43:51;;;;;;;;;3.00;3.00;;;;;20.66;31.79;101208.22;146622;569;45914;-80
2023/03/20 12:47:16;;;;;;;;;5.33;4.33;;;;;20.44;35.35;101201.62;146627;564;45022;-80
2023/03/20 12:51:01;;;;;;;;;1.00;1.00;;;;;20.42;36.76;101198.06;146618;565;46013;-81
2023/03/20 12:54:22;;;;;;;;;4.00;3.00;;;;;20.55;32.17;101196.56;146625;585;45020;-81
2023/03/20 12:58:15;;;;;;;;;2.00;1.00;;;;;19.61;36.40;100988.59;146620;592;46012;-80
2023/03/20 13:01:45;;;;;;;;;;;;;;;;;;;;;
2023/03/20 13:05:17;;;;;;;;;5.00;4.00;;;;;19.96;37.13;101017.31;146617;648;46012;-81
2023/03/20 13:08:49;;;;;;;;;3.00;2.00;;;;;20.94;37.70;101166.50;146623;628;46010;-81
2023/03/20 13:12:23;;;;;;;;;6.33;5.33;;;;;21.12;33.22;101163.25;146620;607;46013;-80
2023/03/20 13:16:04;;;;;;;;;5.00;2.00;;;;;21.10;35.62;101150.06;146615;609;45020;-81
2023/03/20 13:19:27;;;;;;;;;2.00;1.00;;;;;21.04;30.04;101147.31;146621;625;45915;-78
2023/03/20 13:23:20;;;;;;;;;9.00;5.67;;;;;20.02;33.09;100986.72;146620;605;46010;-80
2023/03/20 13:27:03;;;;;;;;;;;;;;;;;;;;;
2023/03/20 13:30:38;;;;;;;;;2.67;2.67;;;;;20.89;35.92;101133.91;146619;569;46010;-82
2023/03/20 13:34:39;;;;;;;;;1.00;1.00;;;;;19.63;38.42;100879.03;146618;582;45913;-79
2023/03/20 13:37:56;;;;;;;;;4.00;4.00;;;;;21.09;36.30;101121.91;146622;582;46010;-79
2023/03/20 13:41:08;;;;;;;;;4.00;2.33;;;;;21.02;36.87;101137.59;146620;624;45915;-83
2023/03/20 13:44:28;;;;;;;;;;;;;;;;;;;;;
2023/03/20 13:47:36;;;;;;;;;8.67;7.00;;;;;20.82;38.76;101134.69;146621;588;45915;-80
2023/03/20 13:51:13;;;;;;;;;6.00;6.00;;;;;20.64;41.11;101151.94;146613;579;46010;-80
2023/03/20 13:54:59;;;;;;;;;3.00;3.00;;;;;20.52;39.65;101130.66;146618;597;46012;-80
2023/03/20 13:59:22;;;;;;;;;7.00;6.00;;;;;18.63;40.43;100818.47;146623;662;46010;-77
2023/03/20 14:02:58;;;;;;;;;7.33;5.33;;;;;20.39;40.45;101115.47;146617;570;45915;-79
2023/03/20 14:05:56;;;;;;;;;8.00;6.00;;;;;20.32;38.77;101111.84;146619;601;46012;-80
2023/03/20 14:09:07;;;;;;;;;3.67;3.33;;;;;20.32;36.47;101116.25;146618;581;46012;-79
2023/03/20 14:12:51;;;;;;;;;6.67;5.33;;;;;20.39;39.13;101115.47;146623;566;45021;-80
2023/03/20 14:16:11;;;;;;;;;3.00;3.00;;;;;20.31;36.41;101102.16;146614;585;46012;-80
2023/03/20 14:19:32;;;;;;;;;5.00;4.67;;;;;20.21;37.94;101100.25;146621;584;45021;-79
2023/03/20 14:22:53;;;;;;;;;3.00;3.00;;;;;20.18;37.97;101087.91;146616;632;46012;-79
2023/03/20 14:25:54;;;;;;;;;5.33;5.00;;;;;20.15;35.59;101087.84;146608;575;45021;-78
2023/03/20 14:29:35;;;;;;;;;7.50;6.00;;;;;20.11;37.69;101085.16;146614;628;46012;-79
2023/03/20 14:33:04;;;;;;;;;;;;;;;;;;;;;
2023/03/20 14:36:41;;;;;;;;;10.75;7.75;;;;;19.87;36.67;101080.31;146615;566;45912;-78
2023/03/20 14:39:57;;;;;;;;;7.00;6.50;;;;;18.80;37.90;100895.00;146617;589;46011;-80
2023/03/20 14:43:55;;;;;;;;;9.00;8.75;;;;;19.71;37.84;101053.69;146616;671;45919;-79
2023/03/20 14:47:35;;;;;;;;;8.00;6.00;;;;;19.71;38.73;101056.31;146617;677;46011;-78
2023/03/20 14:51:04;;;;;;;;;13.25;10.00;;;;;19.74;40.89;101059.00;146612;624;46012;-80
2023/03/20 14:54:01;;;;;;;;;15.00;14.75;;;;;19.77;39.75;101055.56;146714;576;45032;-80
2023/03/20 14:57:40;;;;;;;;;10.50;9.00;;;;;19.79;40.88;101048.59;146621;587;45016;-79
2023/03/20 15:00:48;;;;;;;;;10.50;9.75;;;;;19.74;41.35;101052.88;146632;571;45050;-82
2023/03/20 15:03:47;;;;;;;;;10.00;9.75;;;;;19.65;40.28;101053.56;146628;675;45918;-80
2023/03/20 15:06:56;;;;;;;;;12.67;8.00;;;;;19.48;40.90;101050.59;146634;569;45020;-80
2023/03/20 15:09:55;;;;;;;;;6.00;5.00;;;;;19.26;40.29;101046.63;146629;586;46013;-79
2023/03/20 15:12:51;;;;;;;;;5.00;5.00;;;;;19.02;40.74;101052.25;146633;566;45020;-79
2023/03/20 15:16:28;;;;;;;;;6.67;6.00;;;;;18.81;42.42;101050.00;146628;601;45917;-80
2023/03/20 15:19:37;;;;;;;;;7.00;6.00;;;;;18.64;42.53;101040.84;146628;608;46010;-79